Time;durP1;ratioP1;P1;durP2;ratioP2;P2;SDS_P1;SDS_P2;PMS_P1;PMS_P2;Temp;Humidity;BMP_temperature;BMP_pressure;BME280_temperature;BME280_humidity;BME280_pressure;Samples;Min_cycle;Max_cycle;Signal;HPM_P1;HPM_P2
2022/10/11 00:01:58;;;;;;;10.00;1.73;;;8.40;99.90;;;;;;5074796;28;20052;-71
2022/10/11 00:04:24;;;;;;;8.53;2.47;;;8.30;99.90;;;;;;5040530;28;20098;-70
2022/10/11 00:06:50;;;;;;;8.70;1.80;;;8.30;99.90;;;;;;5074296;28;20078;-70
2022/10/11 00:09:16;;;;;;;14.50;3.00;;;8.30;99.90;;;;;;5074544;28;20127;-71
2022/10/11 00:11:42;;;;;;;12.57;2.60;;;8.20;99.90;;;;;;5056788;28;20048;-70
2022/10/11 00:14:07;;;;;;;6.73;1.70;;;8.30;99.90;;;;;;5057301;28;20040;-70
2022/10/11 00:16:33;;;;;;;10.63;1.90;;;8.30;99.90;;;;;;5074388;28;20142;-70
2022/10/11 00:18:59;;;;;;;11.00;2.20;;;8.30;99.90;;;;;;5074380;28;20124;-70
2022/10/11 00:21:25;;;;;;;12.13;2.00;;;8.20;99.90;;;;;;5074340;28;20119;-71
2022/10/11 00:23:51;;;;;;;13.87;2.23;;;8.20;99.90;;;;;;5074060;28;20049;-70
2022/10/11 00:26:17;;;;;;;8.63;2.00;;;8.20;99.90;;;;;;5074260;28;20290;-70
2022/10/11 00:28:43;;;;;;;10.50;2.40;;;8.20;99.90;;;;;;5074207;28;20131;-70
2022/10/11 00:31:14;;;;;;;12.13;2.23;;;8.30;99.90;;;;;;5074251;28;20079;-71
2022/10/11 00:33:40;;;;;;;11.10;2.93;;;8.20;99.90;;;;;;5074369;28;20449;-71
2022/10/11 00:36:07;;;;;;;8.67;2.43;;;8.20;99.90;;;;;;5074069;28;20359;-70
2022/10/11 00:38:33;;;;;;;8.97;1.87;;;8.20;99.90;;;;;;5073987;28;20075;-70
2022/10/11 00:40:59;;;;;;;8.13;1.87;;;8.20;99.90;;;;;;5057039;28;20313;-70
2022/10/11 00:43:28;;;;;;;11.37;1.87;;;8.10;99.90;;;;;;5056028;28;20408;-70
2022/10/11 00:45:56;;;;;;;8.37;1.77;;;8.10;99.90;;;;;;5074399;28;20287;-70
2022/10/11 00:48:26;;;;;;;11.50;2.00;;;8.00;99.90;;;;;;5055949;28;20294;-70
2022/10/11 00:50:53;;;;;;;12.20;2.53;;;8.00;99.90;;;;;;5055769;28;20366;-70
2022/10/11 00:53:21;;;;;;;10.27;2.10;;;8.10;99.90;;;;;;5073711;28;20634;-71
2022/10/11 00:56:02;;;;;;;9.77;2.13;;;8.00;99.90;;;;;;5056199;28;20365;-71
2022/10/11 00:58:29;;;;;;;8.43;1.80;;;7.90;99.90;;;;;;5056474;28;20273;-71
2022/10/11 01:00:54;;;;;;;12.80;3.57;;;7.90;99.90;;;;;;5074065;28;20305;-70
2022/10/11 01:03:25;;;;;;;9.53;2.00;;;7.80;99.90;;;;;;5039355;28;20770;-71
2022/10/11 01:05:51;;;;;;;11.10;2.10;;;7.90;99.90;;;;;;5073843;28;20048;-70
2022/10/11 01:08:17;;;;;;;9.87;2.13;;;7.90;99.90;;;;;;5073554;28;20301;-71
2022/10/11 01:10:43;;;;;;;10.37;1.73;;;7.90;99.90;;;;;;5055557;28;20048;-70
2022/10/11 01:13:42;;;;;;;13.77;2.93;;;7.90;99.90;;;;;;5073555;28;20287;-70
2022/10/11 01:16:17;;;;;;;12.33;2.10;;;7.90;99.90;;;;;;5055612;28;20798;-70
2022/10/11 01:18:42;;;;;;;;;;;7.90;99.90;;;;;;5073935;28;20805;-70
2022/10/11 01:21:28;;;;;;;11.83;2.43;;;8.00;99.90;;;;;;5073642;28;19924;-70
2022/10/11 01:24:06;;;;;;;10.55;1.88;;;7.90;99.90;;;;;;5073873;28;20473;-70
2022/10/11 01:26:59;;;;;;;11.37;1.97;;;8.00;99.90;;;;;;5074156;28;20054;-70
2022/10/11 01:29:43;;;;;;;11.50;2.13;;;8.00;99.90;;;;;;5073416;28;20287;-70
2022/10/11 01:32:23;;;;;;;13.67;2.63;;;8.00;99.90;;;;;;5056217;28;20311;-70
2022/10/11 01:35:02;;;;;;;11.40;2.17;;;8.00;99.90;;;;;;5073545;28;20755;-70
2022/10/11 01:37:34;;;;;;;10.13;2.07;;;8.00;99.90;;;;;;5075636;28;20278;-70
2022/10/11 01:40:33;;;;;;;9.73;2.60;;;8.00;99.90;;;;;;5062255;28;20282;-70
2022/10/11 01:43:00;;;;;;;8.13;1.97;;;7.90;99.90;;;;;;5080054;28;20336;-70
2022/10/11 01:45:26;;;;;;;14.43;2.37;;;7.90;99.90;;;;;;5079815;28;20286;-71
2022/10/11 01:48:09;;;;;;;15.07;2.37;;;7.80;99.90;;;;;;5079814;28;20751;-71
2022/10/11 01:50:50;;;;;;;14.40;2.50;;;7.80;99.90;;;;;;5080271;28;20430;-71
2022/10/11 01:53:42;;;;;;;11.27;2.33;;;7.70;99.90;;;;;;5062157;28;20769;-73
2022/10/11 01:56:41;;;;;;;10.00;2.20;;;7.70;99.90;;;;;;5080261;28;20425;-70
2022/10/11 01:59:27;;;;;;;12.43;2.33;;;7.80;99.90;;;;;;5066465;28;20730;-70
2022/10/11 02:02:13;;;;;;;7.30;1.67;;;7.70;99.90;;;;;;5080088;28;20275;-70
2022/10/11 02:05:11;;;;;;;13.20;2.53;;;7.70;99.90;;;;;;5062214;28;20060;-71
2022/10/11 02:08:04;;;;;;;9.83;1.90;;;7.60;99.90;;;;;;5061953;28;20374;-70
2022/10/11 02:10:39;;;;;;;6.90;1.67;;;7.60;99.90;;;;;;5079073;28;20295;-70
2022/10/11 02:13:08;;;;;;;8.57;1.57;;;7.50;99.90;;;;;;5061594;28;20311;-70
2022/10/11 02:15:38;;;;;;;7.45;1.60;;;7.50;99.90;;;;;;5079474;28;20282;-70
2022/10/11 02:18:09;;;;;;;8.77;1.83;;;7.60;99.90;;;;;;5080018;28;20131;-70
2022/10/11 02:20:38;;;;;;;7.10;1.90;;;7.50;99.90;;;;;;5080001;28;20112;-70
2022/10/11 02:23:18;;;;;;;11.23;1.97;;;7.50;99.90;;;;;;5079952;28;20356;-70
2022/10/11 02:25:46;;;;;;;9.65;2.03;;;7.50;99.90;;;;;;5079486;28;20356;-70
2022/10/11 02:28:24;;;;;;;8.40;1.80;;;7.50;99.90;;;;;;5062460;28;20430;-70
2022/10/11 02:30:51;;;;;;;8.50;1.73;;;7.50;99.90;;;;;;5061420;28;20278;-70
2022/10/11 02:33:25;;;;;;;7.67;2.20;;;7.50;99.90;;;;;;5079222;28;20702;-70
2022/10/11 02:35:57;;;;;;;13.87;2.13;;;7.50;99.90;;;;;;5079384;28;20283;-70
2022/10/11 02:38:37;;;;;;;9.70;2.03;;;7.50;99.90;;;;;;5079908;28;20287;-71
2022/10/11 02:41:32;;;;;;;11.40;2.50;;;7.50;99.90;;;;;;5079437;28;20326;-70
2022/10/11 02:44:05;;;;;;;11.63;1.77;;;7.40;99.90;;;;;;5080163;28;20353;-70
2022/10/11 02:46:32;;;;;;;8.30;1.58;;;7.40;99.90;;;;;;5079287;28;20036;-70
2022/10/11 02:48:59;;;;;;;9.33;1.97;;;7.40;99.90;;;;;;5076741;28;20048;-70
2022/10/11 02:51:28;;;;;;;10.03;1.67;;;7.40;99.90;;;;;;5058480;28;20313;-70
2022/10/11 02:53:54;;;;;;;7.20;1.85;;;7.40;99.90;;;;;;5075978;28;20385;-70
2022/10/11 02:56:20;;;;;;;7.47;2.17;;;7.30;99.90;;;;;;5076279;28;20136;-70
2022/10/11 02:58:46;;;;;;;10.20;2.07;;;7.30;99.90;;;;;;5075852;28;20040;-70
2022/10/11 03:01:11;;;;;;;9.90;2.00;;;7.30;99.90;;;;;;5075994;28;20055;-70
2022/10/11 03:03:38;;;;;;;12.97;2.73;;;7.40;99.90;;;;;;5076273;28;20075;-70
2022/10/11 03:06:04;;;;;;;12.32;2.58;;;7.30;99.90;;;;;;5075697;28;20048;-70
2022/10/11 03:08:30;;;;;;;8.70;2.13;;;7.30;99.90;;;;;;5075690;28;20056;-70
2022/10/11 03:10:56;;;;;;;8.90;1.83;;;7.20;99.90;;;;;;5076159;28;20048;-70
2022/10/11 03:13:21;;;;;;;9.50;1.90;;;7.20;99.90;;;;;;5075634;28;20101;-70
2022/10/11 03:15:52;;;;;;;11.90;2.03;;;7.20;99.90;;;;;;5076401;28;20051;-70
2022/10/11 03:18:17;;;;;;;9.57;1.73;;;7.20;99.90;;;;;;5057961;28;20054;-70
2022/10/11 03:20:43;;;;;;;10.07;2.27;;;7.20;99.90;;;;;;5058097;28;20283;-70
2022/10/11 03:23:09;;;;;;;10.40;1.80;;;7.20;99.90;;;;;;5075490;28;20080;-70
2022/10/11 03:25:35;;;;;;;8.23;1.73;;;7.20;99.90;;;;;;5075818;28;20465;-70
2022/10/11 03:28:01;;;;;;;8.20;1.93;;;7.20;99.90;;;;;;5057564;28;20083;-70
2022/10/11 03:30:27;;;;;;;5.87;1.90;;;7.20;99.90;;;;;;5076097;28;20154;-72
2022/10/11 03:32:53;;;;;;;7.70;1.93;;;7.20;99.90;;;;;;5075751;28;20334;-70
2022/10/11 03:35:18;;;;;;;14.57;2.03;;;7.10;99.90;;;;;;5074865;28;20701;-70
2022/10/11 03:37:44;;;;;;;12.10;2.73;;;7.20;99.90;;;;;;5075624;28;20051;-70
2022/10/11 03:40:10;;;;;;;11.40;2.33;;;7.20;99.90;;;;;;5075189;28;20071;-70
2022/10/11 03:42:37;;;;;;;8.60;1.52;;;7.10;99.90;;;;;;5075663;28;20041;-70
2022/10/11 03:45:06;;;;;;;10.65;1.88;;;7.10;99.90;;;;;;5074993;28;20048;-70
2022/10/11 03:47:33;;;;;;;8.35;1.75;;;7.10;99.90;;;;;;5074696;28;20568;-71
2022/10/11 03:49:59;;;;;;;10.05;1.67;;;7.20;99.90;;;;;;5075051;28;20055;-70
2022/10/11 03:52:25;;;;;;;9.57;1.57;;;7.20;99.90;;;;;;5074917;28;20119;-70
2022/10/11 03:54:51;;;;;;;10.60;2.23;;;7.20;99.90;;;;;;5074813;28;20062;-70
2022/10/11 03:57:16;;;;;;;10.27;1.87;;;7.20;99.90;;;;;;5074833;28;20048;-70
2022/10/11 03:59:42;;;;;;;12.67;2.30;;;7.20;99.90;;;;;;5057037;28;20040;-70
2022/10/11 04:02:08;;;;;;;13.20;2.33;;;7.20;99.90;;;;;;5056762;28;20692;-70
2022/10/11 04:04:35;;;;;;;14.30;2.67;;;7.20;99.90;;;;;;5074652;28;20044;-71
2022/10/11 04:07:01;;;;;;;7.57;1.63;;;7.20;99.90;;;;;;5074545;28;20507;-70
2022/10/11 04:09:26;;;;;;;7.20;1.60;;;7.30;99.90;;;;;;5056970;28;20040;-70
2022/10/11 04:11:52;;;;;;;10.77;2.73;;;7.30;99.90;;;;;;5057445;28;20154;-70
2022/10/11 04:14:18;;;;;;;11.10;2.70;;;7.40;99.90;;;;;;5074468;28;20051;-70
2022/10/11 04:16:43;;;;;;;12.47;1.97;;;7.40;99.90;;;;;;5056818;28;20094;-70
2022/10/11 04:19:09;;;;;;;6.87;2.10;;;7.40;99.90;;;;;;5074447;28;20040;-70
2022/10/11 04:21:35;;;;;;;8.00;1.97;;;7.40;99.90;;;;;;5057505;28;20483;-71
2022/10/11 04:24:00;;;;;;;12.47;2.13;;;7.40;99.90;;;;;;5074095;28;20049;-70
2022/10/11 04:26:26;;;;;;;6.93;1.80;;;7.40;99.90;;;;;;5075100;28;20053;-70
2022/10/11 04:28:52;;;;;;;12.40;2.33;;;7.40;99.90;;;;;;5056448;28;20473;-70
2022/10/11 04:31:18;;;;;;;9.40;2.10;;;7.50;99.90;;;;;;5074052;28;20048;-70
2022/10/11 04:33:43;;;;;;;12.57;2.77;;;7.40;99.90;;;;;;5074044;28;20128;-70
2022/10/11 04:36:09;;;;;;;14.10;2.10;;;7.30;99.90;;;;;;5073935;28;20040;-70
2022/10/11 04:38:35;;;;;;;18.10;2.37;;;7.40;99.90;;;;;;5073727;28;20131;-73
2022/10/11 04:41:18;;;;;;;13.63;2.17;;;7.30;99.90;;;;;;5073984;28;20040;-70
2022/10/11 04:43:44;;;;;;;13.02;2.15;;;7.30;99.90;;;;;;5074126;28;20048;-70
2022/10/11 04:46:10;;;;;;;10.73;2.10;;;7.40;99.90;;;;;;5073765;28;20425;-71
2022/10/11 04:48:36;;;;;;;9.40;2.30;;;7.40;99.90;;;;;;5074381;28;20051;-73
2022/10/11 04:51:01;;;;;;;14.10;2.67;;;7.40;99.90;;;;;;5074073;28;20131;-70
2022/10/11 04:53:27;;;;;;;9.57;2.20;;;7.50;99.90;;;;;;5073820;28;20048;-70
2022/10/11 04:56:03;;;;;;;9.70;1.92;;;7.50;99.90;;;;;;5073720;28;20057;-70
2022/10/11 04:58:30;;;;;;;10.30;2.20;;;7.50;99.90;;;;;;5073606;28;20056;-70
2022/10/11 05:00:56;;;;;;;13.07;2.10;;;7.50;99.90;;;;;;5055933;28;20294;-70
2022/10/11 05:03:22;;;;;;;9.00;1.80;;;7.50;99.90;;;;;;5056297;28;20282;-70
2022/10/11 05:05:48;;;;;;;13.68;2.22;;;7.60;99.90;;;;;;5073708;28;20261;-71
2022/10/11 05:08:14;;;;;;;12.18;3.08;;;7.60;99.90;;;;;;5055912;28;20048;-71
2022/10/11 05:10:40;;;;;;;10.33;2.17;;;7.60;99.90;;;;;;5055844;28;20051;-71
2022/10/11 05:13:06;;;;;;;13.20;2.63;;;7.60;99.90;;;;;;5073334;28;20041;-70
2022/10/11 05:15:32;;;;;;;14.13;2.47;;;7.60;99.90;;;;;;5073938;28;20055;-70
2022/10/11 05:17:58;;;;;;;13.13;2.67;;;7.60;99.90;;;;;;5074762;28;20048;-70
2022/10/11 05:20:24;;;;;;;16.30;2.47;;;7.50;99.90;;;;;;5074273;28;20599;-70
2022/10/11 05:22:49;;;;;;;11.60;2.28;;;7.50;99.90;;;;;;5074160;28;20044;-70
2022/10/11 05:25:15;;;;;;;15.77;2.50;;;7.50;99.90;;;;;;5073051;28;20139;-70
2022/10/11 05:27:41;;;;;;;14.07;2.27;;;7.50;99.90;;;;;;5073580;28;20358;-73
2022/10/11 05:30:07;;;;;;;10.77;2.00;;;7.50;99.90;;;;;;5073247;28;20142;-70
2022/10/11 05:32:33;;;;;;;12.67;3.30;;;7.50;99.90;;;;;;5073515;28;20044;-70
2022/10/11 05:34:58;;;;;;;10.63;2.73;;;7.60;99.90;;;;;;5055558;28;20329;-70
2022/10/11 05:37:24;;;;;;;9.50;2.10;;;7.50;99.90;;;;;;5073182;28;20131;-71
2022/10/11 05:39:50;;;;;;;11.20;3.20;;;7.50;99.90;;;;;;5073758;28;20045;-70
2022/10/11 05:42:15;;;;;;;17.43;3.23;;;7.50;99.90;;;;;;5038897;28;20080;-70
2022/10/11 05:44:41;;;;;;;17.67;2.67;;;7.50;99.90;;;;;;5073220;28;20072;-70
2022/10/11 05:47:07;;;;;;;16.43;2.70;;;7.50;99.90;;;;;;5038890;28;20041;-70
2022/10/11 05:49:32;;;;;;;13.43;2.47;;;7.50;99.90;;;;;;5073156;28;20099;-70
2022/10/11 05:51:58;;;;;;;11.83;3.07;;;7.40;99.90;;;;;;5072978;28;20071;-70
2022/10/11 05:54:24;;;;;;;9.97;2.63;;;7.40;99.90;;;;;;5073174;28;20052;-70
2022/10/11 05:56:49;;;;;;;12.60;2.90;;;7.40;99.90;;;;;;5073539;28;20040;-71
2022/10/11 05:59:15;;;;;;;11.40;2.73;;;7.40;99.90;;;;;;5055155;28;20048;-70
2022/10/11 06:01:41;;;;;;;13.43;3.00;;;7.50;99.90;;;;;;5073023;28;20040;-70
2022/10/11 06:04:07;;;;;;;11.93;2.73;;;7.40;99.90;;;;;;5073529;28;20139;-70
2022/10/11 06:06:32;;;;;;;12.18;3.17;;;7.40;99.90;;;;;;5056130;28;20056;-70
2022/10/11 06:08:58;;;;;;;10.40;2.77;;;7.40;99.90;;;;;;5073224;28;20055;-70
2022/10/11 06:11:26;;;;;;;12.03;3.40;;;7.40;99.90;;;;;;5055166;28;20538;-71
2022/10/11 06:13:53;;;;;;;12.30;3.20;;;7.40;99.90;;;;;;5072905;28;20055;-71
2022/10/11 06:16:19;;;;;;;9.80;2.90;;;7.50;99.90;;;;;;5072847;28;20452;-70
2022/10/11 06:18:45;;;;;;;11.17;3.00;;;7.40;99.90;;;;;;5073444;28;20123;-70
2022/10/11 06:21:12;;;;;;;12.10;2.63;;;7.50;99.90;;;;;;5073499;28;20480;-71
2022/10/11 06:23:38;;;;;;;11.18;2.78;;;7.50;99.90;;;;;;5073594;28;20481;-70
2022/10/11 06:26:06;;;;;;;12.63;2.57;;;7.50;99.90;;;;;;5076870;28;20056;-71
2022/10/11 06:28:33;;;;;;;8.60;2.50;;;7.60;99.90;;;;;;5076433;28;20290;-70
2022/10/11 06:30:59;;;;;;;11.33;2.70;;;7.70;99.90;;;;;;5075974;28;20044;-71
2022/10/11 06:33:25;;;;;;;9.38;2.22;;;7.70;99.90;;;;;;5076507;28;20347;-71
2022/10/11 06:36:02;;;;;;;10.17;2.27;;;7.80;99.90;;;;;;5076019;28;20476;-71
2022/10/11 06:38:28;;;;;;;11.77;2.83;;;7.80;99.90;;;;;;5076367;28;20512;-71
2022/10/11 06:40:54;;;;;;;13.17;2.67;;;7.90;99.90;;;;;;5058671;28;20428;-71
2022/10/11 06:43:20;;;;;;;13.07;2.37;;;7.80;99.90;;;;;;5076241;28;20531;-71
2022/10/11 06:45:45;;;;;;;11.73;2.70;;;7.80;99.90;;;;;;5058592;28;20051;-71
2022/10/11 06:48:11;;;;;;;15.20;2.93;;;8.00;99.90;;;;;;5058330;28;20048;-71
2022/10/11 06:50:37;;;;;;;17.43;3.27;;;8.10;99.90;;;;;;5058525;28;20060;-70
2022/10/11 06:53:05;;;;;;;13.10;3.97;;;8.10;99.90;;;;;;5075722;28;20497;-71
2022/10/11 06:55:31;;;;;;;12.90;3.60;;;8.30;99.90;;;;;;5076548;28;20278;-70
2022/10/11 06:57:57;;;;;;;12.83;2.83;;;8.40;99.90;;;;;;5076517;28;20329;-71
2022/10/11 07:00:22;;;;;;;10.33;2.57;;;8.50;99.90;;;;;;5058099;28;20286;-70
2022/10/11 07:02:48;;;;;;;13.90;3.20;;;8.60;99.90;;;;;;5075908;28;20056;-68
2022/10/11 07:05:16;;;;;;;12.17;3.20;;;8.70;99.90;;;;;;5075864;28;20055;-70
2022/10/11 07:07:41;;;;;;;14.17;3.70;;;8.80;99.90;;;;;;5076588;28;20274;-70
2022/10/11 07:10:08;;;;;;;13.03;3.57;;;8.90;99.90;;;;;;5076293;28;20354;-70
2022/10/11 07:12:33;;;;;;;13.97;4.00;;;9.00;99.90;;;;;;5075669;28;20040;-69
2022/10/11 07:14:59;;;;;;;16.20;3.20;;;9.10;99.90;;;;;;5075708;28;20289;-70
2022/10/11 07:17:25;;;;;;;13.10;2.70;;;9.30;99.90;;;;;;5075705;28;20056;-69
2022/10/11 07:19:51;;;;;;;16.70;3.60;;;9.40;99.90;;;;;;5075563;28;20048;-69
2022/10/11 07:22:16;;;;;;;11.57;2.87;;;9.50;99.90;;;;;;5075519;28;20496;-69
2022/10/11 07:24:42;;;;;;;14.60;3.17;;;9.60;99.90;;;;;;5075460;28;20052;-69
2022/10/11 07:27:08;;;;;;;13.43;3.57;;;9.60;99.90;;;;;;5075402;28;20055;-70
2022/10/11 07:29:33;;;;;;;12.00;2.87;;;9.60;99.90;;;;;;5075359;28;20055;-70
2022/10/11 07:31:59;;;;;;;12.70;2.90;;;9.60;99.90;;;;;;5075376;28;20368;-69
2022/10/11 07:34:25;;;;;;;12.30;2.60;;;9.60;99.90;;;;;;5058451;28;20044;-70
2022/10/11 07:36:50;;;;;;;12.00;2.97;;;9.60;99.90;;;;;;5074688;28;20127;-70
2022/10/11 07:39:16;;;;;;;15.70;2.93;;;9.60;99.90;;;;;;5075360;28;20052;-70
2022/10/11 07:41:42;;;;;;;11.77;3.07;;;9.60;99.90;;;;;;5074882;28;20123;-70
2022/10/11 07:44:07;;;;;;;13.07;3.40;;;9.60;99.90;;;;;;5058305;28;20037;-70
2022/10/11 07:46:33;;;;;;;15.13;3.63;;;9.70;99.90;;;;;;5075427;28;20396;-70
2022/10/11 07:48:59;;;;;;;16.47;3.37;;;9.80;99.90;;;;;;5075091;28;20080;-70
2022/10/11 07:51:25;;;;;;;13.10;2.90;;;10.00;99.90;;;;;;5075445;28;20044;-69
2022/10/11 07:53:53;;;;;;;11.97;2.80;;;10.10;99.90;;;;;;5074953;28;20481;-69
2022/10/11 07:56:24;;;;;;;14.40;3.20;;;10.20;99.90;;;;;;5074834;28;20059;-70
2022/10/11 07:58:52;;;;;;;15.63;3.17;;;10.20;99.90;;;;;;5075645;28;20336;-69
2022/10/11 08:01:18;;;;;;;16.93;2.80;;;10.30;99.90;;;;;;5075300;28;20362;-70
2022/10/11 08:03:44;;;;;;;20.03;3.93;;;10.30;99.90;;;;;;5057011;28;20311;-69
2022/10/11 08:06:12;;;;;;;11.47;2.77;;;10.30;99.90;;;;;;5074670;28;20333;-69
2022/10/11 08:08:38;;;;;;;12.43;3.50;;;10.40;99.90;;;;;;5074694;28;20060;-69
2022/10/11 08:11:04;;;;;;;14.27;2.83;;;10.50;99.90;;;;;;5056663;28;20278;-70
2022/10/11 08:13:30;;;;;;;15.60;3.93;;;10.60;99.90;;;;;;5057778;28;20052;-69
2022/10/11 08:15:56;;;;;;;17.27;3.47;;;10.70;99.90;;;;;;5056833;28;20075;-69
2022/10/11 08:18:22;;;;;;;12.87;3.00;;;10.80;99.90;;;;;;5074173;28;20788;-70
2022/10/11 08:20:48;;;;;;;15.03;2.87;;;11.00;99.90;;;;;;5074444;28;20283;-69
2022/10/11 08:23:15;;;;;;;15.17;3.23;;;11.10;99.90;;;;;;5074628;28;20124;-69
2022/10/11 08:25:43;;;;;;;19.23;3.37;;;11.20;99.90;;;;;;5056425;28;20118;-69
2022/10/11 08:28:14;;;;;;;14.17;3.50;;;11.20;99.90;;;;;;5074209;28;20282;-69
2022/10/11 08:30:45;;;;;;;13.30;3.50;;;11.20;99.90;;;;;;5074289;28;20266;-69
2022/10/11 08:33:11;;;;;;;17.80;3.70;;;11.30;99.90;;;;;;5074197;28;20303;-69
2022/10/11 08:35:36;;;;;;;15.00;3.80;;;11.30;99.90;;;;;;5056256;28;20333;-69
2022/10/11 08:38:02;;;;;;;11.40;2.97;;;11.40;99.90;;;;;;5056454;28;20048;-72
2022/10/11 08:40:28;;;;;;;16.90;3.97;;;11.50;99.90;;;;;;5074605;28;20058;-68
2022/10/11 08:43:07;;;;;;;13.10;3.53;;;11.50;99.90;;;;;;5074054;28;20041;-68
2022/10/11 08:45:47;;;;;;;15.43;3.43;;;11.50;99.90;;;;;;5056144;28;20044;-70
2022/10/11 08:48:17;;;;;;;17.37;3.57;;;11.50;99.90;;;;;;5073770;28;20279;-70
2022/10/11 08:50:48;;;;;;;14.40;3.77;;;11.50;99.90;;;;;;5074602;28;20337;-70
2022/10/11 08:53:35;;;;;;;14.73;3.53;;;11.50;99.90;;;;;;5073669;28;20347;-70
2022/10/11 08:56:02;;;;;;;16.00;3.33;;;11.50;99.90;;;;;;5074591;28;20282;-70
2022/10/11 08:58:40;;;;;;;23.73;3.90;;;11.50;99.90;;;;;;5073731;28;20278;-70
2022/10/11 09:01:17;;;;;;;13.13;3.60;;;11.50;99.90;;;;;;5056412;28;20301;-70
2022/10/11 09:03:45;;;;;;;21.27;3.47;;;11.60;99.90;;;;;;5073719;28;20278;-70
2022/10/11 09:06:13;;;;;;;16.20;4.00;;;11.60;99.90;;;;;;5073318;28;20631;-71
2022/10/11 09:08:39;;;;;;;20.43;3.77;;;11.60;99.90;;;;;;5073565;28;20648;-71
2022/10/11 09:11:09;;;;;;;16.57;2.90;;;11.60;99.90;;;;;;5073505;28;20298;-73
2022/10/11 09:13:58;;;;;;;17.40;3.17;;;11.60;99.90;;;;;;5073694;28;20044;-71
2022/10/11 09:16:44;;;;;;;20.07;3.47;;;11.70;99.90;;;;;;5056226;28;20374;-71
2022/10/11 09:19:15;;;;;;;14.70;3.00;;;11.70;99.90;;;;;;5055791;28;20291;-73
2022/10/11 09:22:00;;;;;;;21.50;3.47;;;11.70;99.90;;;;;;5055799;28;20295;-72
2022/10/11 09:24:31;;;;;;;17.10;3.20;;;11.80;99.90;;;;;;5073887;28;20291;-72
2022/10/11 09:27:04;;;;;;;16.63;3.97;;;11.80;99.90;;;;;;5073262;28;20777;-71
2022/10/11 09:29:41;;;;;;;15.57;2.77;;;11.90;99.90;;;;;;5074204;28;20340;-72
2022/10/11 09:32:16;;;;;;;17.47;3.40;;;11.90;99.90;;;;;;5074159;28;20373;-70
2022/10/11 09:34:42;;;;;;;13.20;3.28;;;12.00;99.90;;;;;;5073487;28;20694;-70
2022/10/11 09:37:23;;;;;;;17.50;4.13;;;12.00;99.90;;;;;;5073360;28;20059;-70
2022/10/11 09:39:57;;;;;;;15.67;2.43;;;12.10;99.90;;;;;;5073634;28;20291;-71
2022/10/11 09:42:23;;;;;;;20.67;3.67;;;12.10;99.90;;;;;;5073884;28;20638;-73
2022/10/11 09:44:50;;;;;;;14.33;2.33;;;12.20;99.90;;;;;;5022576;28;20287;-72
2022/10/11 09:47:25;;;;;;;13.53;2.47;;;12.20;99.90;;;;;;5056336;28;20536;-72
2022/10/11 09:50:05;;;;;;;16.93;3.40;;;12.30;99.90;;;;;;5074102;28;20646;-71
2022/10/11 09:52:31;;;;;;;11.73;2.47;;;12.30;99.90;;;;;;5073153;28;20347;-72
2022/10/11 09:54:59;;;;;;;14.90;3.10;;;12.40;99.90;;;;;;5073087;28;20762;-69
2022/10/11 09:57:34;;;;;;;13.63;2.70;;;12.50;99.90;;;;;;5073168;28;20282;-69
2022/10/11 10:00:12;;;;;;;13.23;3.13;;;12.50;99.90;;;;;;5076661;28;20743;-69
2022/10/11 10:02:39;;;;;;;14.80;2.70;;;12.50;99.90;;;;;;5077178;28;20058;-70
2022/10/11 10:05:07;;;;;;;10.37;2.47;;;12.60;99.90;;;;;;5077106;28;20321;-70
2022/10/11 10:07:37;;;;;;;15.43;3.27;;;12.70;99.90;;;;;;5077331;28;20332;-70
2022/10/11 10:10:44;;;;;;;12.70;2.10;;;12.70;99.90;;;;;;5076986;28;20286;-70
2022/10/11 10:13:42;;;;;;;12.20;2.60;;;12.70;99.90;;;;;;5076052;28;20353;-70
2022/10/11 10:16:26;;;;;;;11.57;2.87;;;12.80;99.90;;;;;;5021474;28;20309;-70
2022/10/11 10:18:54;;;;;;;12.83;2.43;;;12.80;99.90;;;;;;5076564;28;20777;-70
2022/10/11 10:21:35;;;;;;;12.67;2.60;;;12.90;99.90;;;;;;5076725;28;20282;-70
2022/10/11 10:24:06;;;;;;;16.73;2.40;;;12.90;99.90;;;;;;5077284;28;20314;-70
2022/10/11 10:26:33;;;;;;;15.03;2.37;;;13.00;99.90;;;;;;5056620;28;20280;-71
2022/10/11 10:29:00;;;;;;;12.07;2.53;;;13.10;99.90;;;;;;5056921;28;20337;-70
2022/10/11 10:31:48;;;;;;;13.93;2.70;;;13.10;99.90;;;;;;5056466;28;20348;-70
2022/10/11 10:34:27;;;;;;;13.43;2.40;;;13.10;99.90;;;;;;5056529;28;20283;-70
2022/10/11 10:36:59;;;;;;;11.77;2.33;;;13.20;99.90;;;;;;5039094;28;20346;-71
2022/10/11 10:39:36;;;;;;;12.83;2.07;;;13.20;99.90;;;;;;5038488;28;20283;-70
2022/10/11 10:42:08;;;;;;;14.33;2.40;;;13.30;99.90;;;;;;5056937;28;20326;-70
2022/10/11 10:44:34;;;;;;;10.73;2.30;;;13.20;99.90;;;;;;5022430;28;20299;-70
2022/10/11 10:47:19;;;;;;;13.43;2.60;;;13.20;99.90;;;;;;5056199;28;20279;-70
2022/10/11 10:50:06;;;;;;;9.40;2.15;;;13.20;99.90;;;;;;5056881;28;20045;-70
2022/10/11 10:52:51;;;;;;;9.73;1.80;;;13.20;99.90;;;;;;5056935;28;20076;-69
2022/10/11 10:55:41;;;;;;;8.40;1.98;;;13.20;99.90;;;;;;5056745;28;20275;-69
2022/10/11 10:58:21;;;;;;;10.90;2.07;;;13.20;99.90;;;;;;5056644;28;20103;-69
2022/10/11 11:00:58;;;;;;;13.33;2.70;;;13.20;99.90;;;;;;5056116;28;20331;-70
2022/10/11 11:03:32;;;;;;;10.27;1.83;;;13.20;99.90;;;;;;5055989;28;20747;-70
2022/10/11 11:06:14;;;;;;;12.57;2.00;;;13.20;99.90;;;;;;5056021;28;20362;-70
2022/10/11 11:08:43;;;;;;;11.40;2.00;;;13.20;99.90;;;;;;5038990;28;20045;-70
2022/10/11 11:11:31;;;;;;;15.07;2.30;;;13.30;99.90;;;;;;5054627;28;20291;-70
2022/10/11 11:14:18;;;;;;;10.53;2.10;;;13.30;99.90;;;;;;5038211;28;20636;-70
2022/10/11 11:16:47;;;;;;;8.10;2.50;;;13.40;99.90;;;;;;5055668;28;20299;-70
2022/10/11 11:19:25;;;;;;;10.87;2.00;;;13.40;99.90;;;;;;5055665;28;20283;-72
2022/10/11 11:22:15;;;;;;;10.53;2.03;;;13.40;99.90;;;;;;5038659;28;20284;-70
2022/10/11 11:25:06;;;;;;;9.03;2.33;;;13.40;99.90;;;;;;5060833;28;20299;-69
2022/10/11 11:28:06;;;;;;;10.43;2.43;;;13.40;99.90;;;;;;5058676;28;20330;-70
2022/10/11 11:30:43;;;;;;;11.10;2.30;;;13.40;99.90;;;;;;5075480;28;20271;-70
2022/10/11 11:33:51;;;;;;;10.97;2.30;;;13.40;99.90;;;;;;5075346;28;20299;-70
2022/10/11 11:36:32;;;;;;;9.87;1.97;;;13.50;99.90;;;;;;5075935;28;20329;-70
2022/10/11 11:39:02;;;;;;;10.17;2.00;;;13.70;99.90;;;;;;5075026;28;20775;-70
2022/10/11 11:41:43;;;;;;;11.97;2.40;;;13.70;99.90;;;;;;5075230;28;20274;-71
2022/10/11 11:44:37;;;;;;;10.17;2.10;;;13.70;99.90;;;;;;5057595;28;20286;-71
2022/10/11 11:47:09;;;;;;;12.57;2.10;;;13.80;99.90;;;;;;5075450;28;20362;-71
2022/10/11 11:49:47;;;;;;;10.63;2.37;;;13.80;99.90;;;;;;5074766;28;20767;-71
2022/10/11 11:52:23;;;;;;;9.63;2.20;;;13.80;99.90;;;;;;5075088;28;20762;-70
2022/10/11 11:55:07;;;;;;;10.57;2.27;;;13.90;99.90;;;;;;5074986;28;20329;-71
2022/10/11 11:57:59;;;;;;;14.10;2.80;;;13.90;99.90;;;;;;5074893;28;20349;-70
2022/10/11 12:00:30;;;;;;;7.33;1.70;;;;;;;;;;5019396;28;20299;-70
2022/10/11 12:03:08;;;;;;;14.60;2.47;;;13.80;99.90;;;;;;5074853;28;20278;-70
2022/10/11 12:05:35;;;;;;;11.57;2.73;;;13.80;99.90;;;;;;5074810;28;20323;-71
2022/10/11 12:08:07;;;;;;;10.77;2.10;;;13.80;99.90;;;;;;5074680;28;20778;-71
2022/10/11 12:10:48;;;;;;;8.83;2.50;;;13.80;99.90;;;;;;5056996;28;20301;-74
2022/10/11 12:13:35;;;;;;;10.10;2.33;;;13.90;99.90;;;;;;5074474;28;20299;-70
2022/10/11 12:16:11;;;;;;;9.70;2.17;;;13.90;99.90;;;;;;5074597;28;20281;-71
2022/10/11 12:18:55;;;;;;;12.10;2.33;;;13.90;99.90;;;;;;5074561;28;20286;-71
2022/10/11 12:21:31;;;;;;;8.47;2.00;;;13.90;99.90;;;;;;5074342;28;20279;-69
2022/10/11 12:24:10;;;;;;;9.97;1.97;;;14.00;99.90;;;;;;5057091;28;20352;-71
2022/10/11 12:26:41;;;;;;;10.77;2.20;;;14.20;99.90;;;;;;5074307;28;20293;-70
2022/10/11 12:29:19;;;;;;;14.47;2.20;;;14.30;99.90;;;;;;5074351;28;20366;-70
2022/10/11 12:31:57;;;;;;;10.80;2.40;;;14.30;99.90;;;;;;5074180;28;20298;-70
2022/10/11 12:34:33;;;;;;;9.30;2.17;;;14.50;99.90;;;;;;5074495;28;20612;-70
2022/10/11 12:37:19;;;;;;;10.10;2.10;;;14.50;99.90;;;;;;5074722;28;20290;-71
2022/10/11 12:39:56;;;;;;;11.27;2.10;;;14.60;99.90;;;;;;5057038;28;20301;-70
2022/10/11 12:42:30;;;;;;;9.00;2.27;;;;;;;;;;5074038;28;20283;-70
2022/10/11 12:45:29;;;;;;;9.90;2.10;;;14.70;99.90;;;;;;5073976;28;20314;-70
2022/10/11 12:48:03;;;;;;;9.93;2.40;;;14.70;99.90;;;;;;5057141;28;20677;-70
2022/10/11 12:50:42;;;;;;;11.43;2.00;;;14.80;99.90;;;;;;5074258;28;20294;-70
2022/10/11 12:53:16;;;;;;;12.90;2.53;;;14.80;99.90;;;;;;5056049;28;20892;-71
2022/10/11 12:55:51;;;;;;;12.43;2.15;;;14.90;99.90;;;;;;5074335;28;20283;-71
2022/10/11 12:58:29;;;;;;;11.40;2.95;;;14.90;99.90;;;;;;5074175;28;20049;-71
2022/10/11 13:00:55;;;;;;;9.80;2.17;;;14.90;99.90;;;;;;5073781;28;20127;-71
2022/10/11 13:03:38;;;;;;;9.70;1.83;;;14.90;99.90;;;;;;5074013;28;20432;-70
2022/10/11 13:06:26;;;;;;;7.23;1.97;;;14.80;99.90;;;;;;5073714;28;20074;-71
2022/10/11 13:09:03;;;;;;;7.67;2.00;;;14.80;99.90;;;;;;5074112;28;20332;-70